createdAt,value
2018-12-23T00:00:16.907Z,14.47
2018-12-23T00:00:52.971Z,14.78
2018-12-23T00:01:29.009Z,15.00
2018-12-23T00:02:05.433Z,14.50
2018-12-23T00:02:41.435Z,14.55
2018-12-23T00:03:17.483Z,14.85
2018-12-23T00:03:53.519Z,14.90
2018-12-23T00:04:29.720Z,14.68
2018-12-23T00:05:11.442Z,15.50
2018-12-23T00:05:44.221Z,15.03
2018-12-23T00:06:20.726Z,15.68
2018-12-23T00:06:56.761Z,14.90
2018-12-23T00:07:32.783Z,14.87
2018-12-23T00:08:08.833Z,15.88
2018-12-23T00:08:44.851Z,16.80
2018-12-23T00:09:20.886Z,15.93
2018-12-23T00:09:57.420Z,17.20
2018-12-23T00:10:33.849Z,17.05
2018-12-23T00:11:09.875Z,17.00
2018-12-23T00:11:45.980Z,17.12
2018-12-23T00:12:22.163Z,15.63
2018-12-23T00:12:58.203Z,16.77
2018-12-23T00:13:34.315Z,16.62
2018-12-23T00:14:10.345Z,16.50
2018-12-23T00:14:46.403Z,17.42
2018-12-23T00:15:22.443Z,17.45
2018-12-23T00:15:58.474Z,16.97
2018-12-23T00:16:34.581Z,16.82
2018-12-23T00:17:10.608Z,18.30
2018-12-23T00:17:47.112Z,18.60
2018-12-23T00:18:23.175Z,17.20
2018-12-23T00:18:59.639Z,17.62
2018-12-23T00:19:36.070Z,19.40
2018-12-23T00:20:12.103Z,19.77
2018-12-23T00:20:48.535Z,17.70
2018-12-23T00:21:24.940Z,17.02
2018-12-23T00:22:00.979Z,19.02
2018-12-23T00:22:37.033Z,18.25
2018-12-23T00:23:13.080Z,18.12
2018-12-23T00:23:49.123Z,18.45
2018-12-23T00:24:25.167Z,19.27
2018-12-23T00:25:01.193Z,16.85
2018-12-23T00:25:37.216Z,17.15
2018-12-23T00:26:13.237Z,16.02
2018-12-23T00:26:49.249Z,18.00
2018-12-23T00:27:25.403Z,18.02
2018-12-23T00:28:01.774Z,17.75
2018-12-23T00:28:37.839Z,17.05
2018-12-23T00:29:13.884Z,17.27
2018-12-23T00:29:56.558Z,17.77
2018-12-23T00:30:32.575Z,16.82
2018-12-23T00:31:08.602Z,16.80
2018-12-23T00:31:44.596Z,16.45
2018-12-23T00:32:21.047Z,16.57
2018-12-23T00:32:57.122Z,16.23
2018-12-23T00:33:33.162Z,16.87
2018-12-23T00:34:09.596Z,17.35
2018-12-23T00:34:45.971Z,17.37
2018-12-23T00:35:22.428Z,17.48
2018-12-23T00:35:59.289Z,17.23
2018-12-23T00:36:35.357Z,16.32
2018-12-23T00:37:11.389Z,17.65
2018-12-23T00:37:47.827Z,17.80
2018-12-23T00:38:24.296Z,16.93
2018-12-23T00:39:00.360Z,16.90
2018-12-23T00:39:36.409Z,16.87
2018-12-23T00:40:12.451Z,15.58
2018-12-23T00:40:48.489Z,17.23
2018-12-23T00:41:24.498Z,16.85
2018-12-23T00:42:00.561Z,16.07
2018-12-23T00:42:36.993Z,17.60
2018-12-23T00:43:13.037Z,16.42
2018-12-23T00:43:49.103Z,15.65
2018-12-23T00:44:25.514Z,16.70
2018-12-23T00:45:04.912Z,16.27
2018-12-23T00:45:40.979Z,16.52
2018-12-23T00:46:17.332Z,16.50
2018-12-23T00:46:53.392Z,15.72
2018-12-23T00:47:29.735Z,16.10
2018-12-23T00:48:05.747Z,16.57
2018-12-23T00:48:42.240Z,16.73
2018-12-23T00:49:18.338Z,16.75
2018-12-23T00:49:54.614Z,17.85
2018-12-23T00:50:31.819Z,14.85
2018-12-23T00:51:08.253Z,17.17
2018-12-23T00:51:44.292Z,17.12
2018-12-23T00:52:20.331Z,16.07
2018-12-23T00:52:56.745Z,16.17
2018-12-23T00:53:32.813Z,17.07
2018-12-23T00:54:08.827Z,16.85
2018-12-23T00:54:44.869Z,16.07
2018-12-23T00:55:21.495Z,17.02
2018-12-23T00:55:57.917Z,17.23
2018-12-23T00:56:34.337Z,15.18
2018-12-23T00:57:10.363Z,15.30
2018-12-23T00:57:46.442Z,15.35
2018-12-23T00:58:22.459Z,13.75
2018-12-23T00:58:59.491Z,13.03
2018-12-23T00:59:35.525Z,15.18
2018-12-23T01:00:12.771Z,15.38
2018-12-23T01:00:49.221Z,15.28
2018-12-23T01:01:25.651Z,15.85
2018-12-23T01:02:01.699Z,16.80
2018-12-23T01:02:37.741Z,16.77
2018-12-23T01:03:14.575Z,16.40
2018-12-23T01:03:51.015Z,15.75
2018-12-23T01:04:27.056Z,15.48
2018-12-23T01:05:03.719Z,17.42
2018-12-23T01:05:39.763Z,17.45
2018-12-23T01:06:15.875Z,16.52
2018-12-23T01:06:51.929Z,16.07
2018-12-23T01:07:28.009Z,17.62
2018-12-23T01:08:04.499Z,16.20
2018-12-23T01:08:41.141Z,14.13
2018-12-23T01:09:17.562Z,15.93
2018-12-23T01:09:53.592Z,14.45
2018-12-23T01:10:29.625Z,15.60
2018-12-23T01:11:05.663Z,15.63
2018-12-23T01:11:42.067Z,14.93
2018-12-23T01:12:18.112Z,16.07
2018-12-23T01:12:54.445Z,16.35
2018-12-23T01:13:30.590Z,16.45
2018-12-23T01:14:06.649Z,17.15
2018-12-23T01:14:43.021Z,16.77
2018-12-23T01:15:19.104Z,14.73
2018-12-23T01:15:55.161Z,15.90
2018-12-23T01:16:31.613Z,15.72
2018-12-23T01:17:07.865Z,16.73
2018-12-23T01:17:43.908Z,15.98
2018-12-23T01:18:19.996Z,16.70
2018-12-23T01:18:56.026Z,16.57
2018-12-23T01:19:32.099Z,16.50
2018-12-23T01:20:09.393Z,15.63
2018-12-23T01:20:45.734Z,16.30
2018-12-23T01:21:22.145Z,16.77
2018-12-23T01:21:58.627Z,16.30
2018-12-23T01:22:34.736Z,16.30
2018-12-23T01:23:10.798Z,17.15
2018-12-23T01:23:46.943Z,16.77
2018-12-23T01:24:23.626Z,16.80
2018-12-23T01:24:59.692Z,15.80
2018-12-23T01:25:36.127Z,16.25
2018-12-23T01:26:12.550Z,15.98
2018-12-23T01:26:48.563Z,16.23
2018-12-23T01:27:24.626Z,15.28
2018-12-23T01:28:00.691Z,16.62
2018-12-23T01:28:36.708Z,16.65
2018-12-23T01:29:13.538Z,16.00
2018-12-23T01:29:49.599Z,15.32
2018-12-23T01:30:25.697Z,15.20
2018-12-23T01:31:02.787Z,15.68
2018-12-23T01:31:38.805Z,16.73
2018-12-23T01:32:15.755Z,15.55
2018-12-23T01:32:51.840Z,15.90
2018-12-23T01:33:27.837Z,15.60
2018-12-23T01:34:05.425Z,16.10
2018-12-23T01:34:41.848Z,15.83
2018-12-23T01:35:17.898Z,16.20
2018-12-23T01:35:54.211Z,16.17
2018-12-23T01:36:30.212Z,16.35
2018-12-23T01:37:06.237Z,16.85
2018-12-23T01:37:42.255Z,15.95
2018-12-23T01:38:18.761Z,15.10
2018-12-23T01:38:54.772Z,13.85
2018-12-23T01:39:31.479Z,14.75
2018-12-23T01:40:08.334Z,15.40
2018-12-23T01:40:45.116Z,15.45
2018-12-23T01:41:21.136Z,16.20
2018-12-23T01:41:57.192Z,14.90
2018-12-23T01:42:33.611Z,15.08
2018-12-23T01:43:09.658Z,15.50
2018-12-23T01:43:45.696Z,15.38
2018-12-23T01:44:21.768Z,15.15
2018-12-23T01:44:57.896Z,15.18
2018-12-23T01:45:34.306Z,16.00
2018-12-23T01:46:10.314Z,14.70
2018-12-23T01:46:46.322Z,15.90
2018-12-23T01:47:22.358Z,15.13
2018-12-23T01:47:58.392Z,14.70
2018-12-23T01:48:35.406Z,14.65
2018-12-23T01:49:11.817Z,14.25
2018-12-23T01:49:47.862Z,13.88
2018-12-23T01:50:24.241Z,13.83
2018-12-23T01:51:00.768Z,14.47
2018-12-23T01:51:37.176Z,14.78
2018-12-23T01:52:13.682Z,14.90
2018-12-23T01:52:50.103Z,14.93
2018-12-23T01:53:26.660Z,14.00
2018-12-23T01:54:03.114Z,14.50
2018-12-23T01:54:39.517Z,13.75
2018-12-23T01:55:16.004Z,13.48
2018-12-23T01:55:52.039Z,14.83
2018-12-23T01:56:28.888Z,13.72
2018-12-23T01:57:05.708Z,14.00
2018-12-23T01:57:41.768Z,14.68
2018-12-23T01:58:18.202Z,13.83
2018-12-23T01:58:54.230Z,13.88
2018-12-23T01:59:30.252Z,13.10
2018-12-23T02:00:09.490Z,14.28
2018-12-23T02:00:45.530Z,14.50
2018-12-23T02:01:21.620Z,13.30
2018-12-23T02:01:58.050Z,12.90
2018-12-23T02:02:34.126Z,13.18
2018-12-23T02:03:10.154Z,13.70
2018-12-23T02:03:47.392Z,14.10
2018-12-23T02:04:23.740Z,14.28
2018-12-23T02:05:00.283Z,13.75
2018-12-23T02:05:36.628Z,13.03
2018-12-23T02:06:13.452Z,12.58
2018-12-23T02:06:50.181Z,12.55
2018-12-23T02:07:26.212Z,12.88
2018-12-23T02:08:02.630Z,13.55
2018-12-23T02:08:38.658Z,13.58
2018-12-23T02:09:14.694Z,13.65
2018-12-23T02:09:50.959Z,13.53
2018-12-23T02:10:27.414Z,12.85
2018-12-23T02:11:03.912Z,13.13
2018-12-23T02:11:40.316Z,13.48
2018-12-23T02:12:16.332Z,12.00
2018-12-23T02:12:52.719Z,13.45
2018-12-23T02:13:29.152Z,12.73
2018-12-23T02:14:05.616Z,12.25
2018-12-23T02:14:41.645Z,12.88
2018-12-23T02:15:17.672Z,12.73
2018-12-23T02:15:54.116Z,12.28
2018-12-23T02:16:30.202Z,12.30
2018-12-23T02:17:06.635Z,12.10
2018-12-23T02:17:43.092Z,11.60
2018-12-23T02:18:19.530Z,11.83
2018-12-23T02:18:55.995Z,13.72
2018-12-23T02:19:32.400Z,12.85
2018-12-23T02:20:09.239Z,12.98
2018-12-23T02:20:45.680Z,12.82
2018-12-23T02:21:22.135Z,13.40
2018-12-23T02:21:58.208Z,11.40
2018-12-23T02:22:34.635Z,12.82
2018-12-23T02:23:10.686Z,13.32
2018-12-23T02:23:46.747Z,13.35
2018-12-23T02:24:22.804Z,12.55
2018-12-23T02:24:58.878Z,12.37
2018-12-23T02:25:35.359Z,12.25
2018-12-23T02:26:11.606Z,13.13
2018-12-23T02:26:47.667Z,13.15
2018-12-23T02:27:24.089Z,13.75
2018-12-23T02:28:00.148Z,13.70
2018-12-23T02:28:36.199Z,12.98
2018-12-23T02:29:12.609Z,13.03
2018-12-23T02:29:49.032Z,13.85
2018-12-23T02:30:25.052Z,12.63
2018-12-23T02:31:01.130Z,13.60
2018-12-23T02:31:37.154Z,13.68
2018-12-23T02:32:13.201Z,12.95
2018-12-23T02:32:49.212Z,13.65
2018-12-23T02:33:25.238Z,13.50
2018-12-23T02:34:02.077Z,13.32
2018-12-23T02:34:38.440Z,14.20
2018-12-23T02:35:14.841Z,13.48
2018-12-23T02:35:55.426Z,13.65
2018-12-23T02:36:30.035Z,12.90
2018-12-23T02:37:06.465Z,13.32
2018-12-23T02:37:42.893Z,14.03
2018-12-23T02:38:19.774Z,14.10
2018-12-23T02:38:57.605Z,13.22
2018-12-23T02:39:34.537Z,13.35
2018-12-23T02:40:10.901Z,14.13
2018-12-23T02:40:46.920Z,13.72
2018-12-23T02:41:31.284Z,14.60
2018-12-23T02:42:01.444Z,13.20
2018-12-23T02:42:37.430Z,14.13
2018-12-23T02:43:13.872Z,14.55
2018-12-23T02:43:49.883Z,15.30
2018-12-23T02:44:26.246Z,13.38
2018-12-23T02:45:02.707Z,13.62
2018-12-23T02:45:39.268Z,13.80
2018-12-23T02:46:15.569Z,14.45
2018-12-23T02:46:52.055Z,13.68
2018-12-23T02:47:28.440Z,13.13
2018-12-23T02:48:04.859Z,13.80
2018-12-23T02:48:40.915Z,13.08
2018-12-23T02:49:16.959Z,13.15
2018-12-23T02:49:53.388Z,13.60
2018-12-23T02:50:29.397Z,13.10
2018-12-23T02:51:06.116Z,13.75
2018-12-23T02:51:42.636Z,13.83
2018-12-23T02:52:19.354Z,13.85
2018-12-23T02:52:55.426Z,14.15
2018-12-23T02:53:31.446Z,13.35
2018-12-23T02:54:07.485Z,14.05
2018-12-23T02:54:43.610Z,13.32
2018-12-23T02:55:19.628Z,14.75
2018-12-23T02:55:55.666Z,12.78
2018-12-23T02:56:31.713Z,13.95
2018-12-23T02:57:07.761Z,15.15
2018-12-23T02:57:43.784Z,15.08
2018-12-23T02:58:19.956Z,14.55
2018-12-23T02:58:55.980Z,13.62
2018-12-23T02:59:31.971Z,14.30
2018-12-23T03:00:09.097Z,14.30
2018-12-23T03:00:45.471Z,13.78
2018-12-23T03:01:21.487Z,13.75
2018-12-23T03:01:58.304Z,13.93
2018-12-23T03:02:34.331Z,14.28
2018-12-23T03:03:10.406Z,15.13
2018-12-23T03:03:46.409Z,14.07
2018-12-23T03:04:22.494Z,14.87
2018-12-23T03:04:58.982Z,14.05
2018-12-23T03:05:35.011Z,14.10
2018-12-23T03:06:11.433Z,14.07
2018-12-23T03:06:47.832Z,15.15
2018-12-23T03:07:24.302Z,14.23
2018-12-23T03:08:00.345Z,14.00
2018-12-23T03:08:36.773Z,14.18
2018-12-23T03:09:12.789Z,14.78
2018-12-23T03:09:49.209Z,13.78
2018-12-23T03:10:25.229Z,14.33
2018-12-23T03:11:01.237Z,14.78
2018-12-23T03:11:37.892Z,14.40
2018-12-23T03:12:14.301Z,14.83
2018-12-23T03:12:50.768Z,13.95
2018-12-23T03:13:27.428Z,14.58
2018-12-23T03:14:04.275Z,14.10
2018-12-23T03:14:40.338Z,13.95
2018-12-23T03:15:16.792Z,13.60
2018-12-23T03:15:52.863Z,13.48
2018-12-23T03:16:29.340Z,14.30
2018-12-23T03:17:06.260Z,14.55
2018-12-23T03:17:42.771Z,13.98
2018-12-23T03:18:18.837Z,13.43
2018-12-23T03:18:54.913Z,14.68
2018-12-23T03:19:30.983Z,14.40
2018-12-23T03:20:07.888Z,13.60
2018-12-23T03:20:43.961Z,13.62
2018-12-23T03:21:20.400Z,14.20
2018-12-23T03:21:56.847Z,14.13
2018-12-23T03:22:33.313Z,14.03
2018-12-23T03:23:09.781Z,13.80
2018-12-23T03:23:45.827Z,13.20
2018-12-23T03:24:22.366Z,14.03
2018-12-23T03:24:58.426Z,13.08
2018-12-23T03:25:34.472Z,13.18
2018-12-23T03:26:10.516Z,12.95
2018-12-23T03:26:46.584Z,14.68
2018-12-23T03:27:22.657Z,14.50
2018-12-23T03:27:59.515Z,15.03
2018-12-23T03:28:35.563Z,14.70
2018-12-23T03:29:11.643Z,13.62
2018-12-23T03:29:47.707Z,14.30
2018-12-23T03:30:23.766Z,15.30
2018-12-23T03:30:59.814Z,14.40
2018-12-23T03:31:36.232Z,15.18
2018-12-23T03:32:12.301Z,15.53
2018-12-23T03:32:48.712Z,14.28
2018-12-23T03:33:25.191Z,14.40
2018-12-23T03:34:01.226Z,14.47
2018-12-23T03:34:37.598Z,14.45
2018-12-23T03:35:13.647Z,14.45
2018-12-23T03:35:50.109Z,15.45
2018-12-23T03:36:26.967Z,14.47
2018-12-23T03:37:03.931Z,13.95
2018-12-23T03:37:39.974Z,13.08
2018-12-23T03:38:16.064Z,13.98
2018-12-23T03:38:52.355Z,14.68
2018-12-23T03:39:28.400Z,15.72
2018-12-23T03:40:05.593Z,15.08
2018-12-23T03:40:42.095Z,13.60
2018-12-23T03:41:18.175Z,14.55
2018-12-23T03:41:54.647Z,15.15
2018-12-23T03:42:31.151Z,14.58
2018-12-23T03:43:07.233Z,13.90
2018-12-23T03:43:43.720Z,14.07
2018-12-23T03:44:19.795Z,15.05
2018-12-23T03:44:56.279Z,14.75
2018-12-23T03:45:32.988Z,14.87
2018-12-23T03:46:09.289Z,14.15
2018-12-23T03:46:45.749Z,15.70
2018-12-23T03:47:21.779Z,14.60
2018-12-23T03:47:58.286Z,14.75
2018-12-23T03:48:34.320Z,15.45
2018-12-23T03:49:10.369Z,13.88
2018-12-23T03:49:52.759Z,15.00
2018-12-23T03:50:28.804Z,15.40
2018-12-23T03:51:05.233Z,15.48
2018-12-23T03:51:41.755Z,14.35
2018-12-23T03:52:17.800Z,14.87
2018-12-23T03:52:53.864Z,15.95
2018-12-23T03:53:29.926Z,14.90
2018-12-23T03:54:05.989Z,14.55
2018-12-23T03:54:42.283Z,15.78
2018-12-23T03:55:18.352Z,14.45
2018-12-23T03:55:54.483Z,14.60
2018-12-23T03:56:30.499Z,14.58
2018-12-23T03:57:06.554Z,14.25
2018-12-23T03:57:42.589Z,15.38
2018-12-23T03:58:19.448Z,13.70
2018-12-23T03:58:55.891Z,14.87
2018-12-23T03:59:32.752Z,14.53
2018-12-23T04:00:09.910Z,14.28
2018-12-23T04:00:45.957Z,14.53
2018-12-23T04:01:22.021Z,14.30
2018-12-23T04:01:58.133Z,13.80
2018-12-23T04:02:34.192Z,14.30
2018-12-23T04:03:10.644Z,13.98
2018-12-23T04:03:46.829Z,14.60
2018-12-23T04:04:22.873Z,15.32
2018-12-23T04:04:59.535Z,14.15
2018-12-23T04:05:35.558Z,14.25
2018-12-23T04:06:11.647Z,14.35
2018-12-23T04:06:47.711Z,13.88
2018-12-23T04:07:24.165Z,14.35
2018-12-23T04:08:00.211Z,14.87
2018-12-23T04:08:36.279Z,14.40
2018-12-23T04:09:12.450Z,13.38
2018-12-23T04:09:49.200Z,14.25
2018-12-23T04:10:25.239Z,13.70
2018-12-23T04:11:01.273Z,15.23
2018-12-23T04:11:37.721Z,14.25
2018-12-23T04:12:13.767Z,14.00
2018-12-23T04:12:49.813Z,15.15
2018-12-23T04:13:25.905Z,14.35
2018-12-23T04:14:01.981Z,14.38
2018-12-23T04:14:38.049Z,13.70
2018-12-23T04:15:14.466Z,14.65
2018-12-23T04:15:50.891Z,14.10
2018-12-23T04:16:27.087Z,14.13
2018-12-23T04:17:03.170Z,14.25
2018-12-23T04:17:39.290Z,14.10
2018-12-23T04:18:15.322Z,14.00
2018-12-23T04:18:51.420Z,13.30
2018-12-23T04:19:27.459Z,14.58
2018-12-23T04:20:04.423Z,14.15
2018-12-23T04:20:40.660Z,16.17
2018-12-23T04:21:17.129Z,14.15
2018-12-23T04:21:53.175Z,14.63
2018-12-23T04:22:29.228Z,14.63
2018-12-23T04:23:05.293Z,14.25
2018-12-23T04:23:41.360Z,13.95
2018-12-23T04:24:17.394Z,13.85
2018-12-23T04:24:53.438Z,14.35
2018-12-23T04:25:29.498Z,13.93
2018-12-23T04:26:05.592Z,13.65
2018-12-23T04:26:41.615Z,14.30
2018-12-23T04:27:18.071Z,14.23
2018-12-23T04:27:54.109Z,14.18
2018-12-23T04:28:30.156Z,14.50
2018-12-23T04:29:06.209Z,15.15
2018-12-23T04:29:42.664Z,15.18
2018-12-23T04:30:19.121Z,13.08
2018-12-23T04:30:55.161Z,14.93
2018-12-23T04:31:31.562Z,14.45
2018-12-23T04:32:08.238Z,14.43
2018-12-23T04:32:44.272Z,14.35
2018-12-23T04:33:20.299Z,14.43
2018-12-23T04:33:56.375Z,14.00
2018-12-23T04:34:32.426Z,13.78
2018-12-23T04:35:08.484Z,13.53
2018-12-23T04:35:45.194Z,14.60
2018-12-23T04:36:21.225Z,14.93
2018-12-23T04:36:57.237Z,14.10
2018-12-23T04:37:33.645Z,14.98
2018-12-23T04:38:09.714Z,15.20
2018-12-23T04:38:46.154Z,14.33
2018-12-23T04:39:22.590Z,14.60
2018-12-23T04:39:58.632Z,15.25
2018-12-23T04:40:34.678Z,15.70
2018-12-23T04:41:11.098Z,14.70
2018-12-23T04:41:47.120Z,14.60
2018-12-23T04:42:23.151Z,15.48
2018-12-23T04:42:59.613Z,15.25
2018-12-23T04:43:36.140Z,14.07
2018-12-23T04:44:12.205Z,15.85
2018-12-23T04:44:48.286Z,15.53
2018-12-23T04:45:24.773Z,16.35
2018-12-23T04:46:00.893Z,15.70
2018-12-23T04:46:37.022Z,17.02
2018-12-23T04:47:13.072Z,15.35
2018-12-23T04:47:49.135Z,15.45
2018-12-23T04:48:25.464Z,15.95
2018-12-23T04:49:03.502Z,15.23
2018-12-23T04:49:43.220Z,17.67
2018-12-23T04:50:19.496Z,16.45
2018-12-23T04:50:55.519Z,16.77
2018-12-23T04:51:31.582Z,16.95
2018-12-23T04:52:07.589Z,15.90
2018-12-23T04:52:44.042Z,17.20
2018-12-23T04:53:20.042Z,16.15
2018-12-23T04:53:56.457Z,18.37
2018-12-23T04:54:32.504Z,18.10
2018-12-23T04:55:08.967Z,16.40
2018-12-23T04:55:45.397Z,17.42
2018-12-23T04:56:21.427Z,18.77
2018-12-23T04:56:57.440Z,18.65
2018-12-23T04:57:33.480Z,18.30
2018-12-23T04:58:09.522Z,18.50
2018-12-23T04:58:45.995Z,19.17
2018-12-23T04:59:22.433Z,17.85
2018-12-23T04:59:58.906Z,18.92
2018-12-23T05:00:34.954Z,16.85
2018-12-23T05:01:11.010Z,18.82
2018-12-23T05:01:47.456Z,17.87
2018-12-23T05:02:23.522Z,17.80
2018-12-23T05:02:59.558Z,16.23
2018-12-23T05:03:42.517Z,18.73
2018-12-23T05:04:13.656Z,16.32
2018-12-23T05:04:49.709Z,18.80
2018-12-23T05:05:25.754Z,19.87
2018-12-23T05:06:01.800Z,17.50
2018-12-23T05:06:43.224Z,16.97
2018-12-23T05:07:15.796Z,18.87
2018-12-23T05:07:51.826Z,17.65
2018-12-23T05:08:27.857Z,19.07
2018-12-23T05:09:06.294Z,19.17
2018-12-23T05:09:42.342Z,19.10
2018-12-23T05:10:18.792Z,18.05
2018-12-23T05:10:54.800Z,18.10
2018-12-23T05:11:31.533Z,18.48
2018-12-23T05:12:07.958Z,18.92
2018-12-23T05:12:43.966Z,19.50
2018-12-23T05:13:20.025Z,18.95
2018-12-23T05:13:56.064Z,17.92
2018-12-23T05:14:32.103Z,18.27
2018-12-23T05:15:08.126Z,20.20
2018-12-23T05:15:44.550Z,20.40
2018-12-23T05:16:21.010Z,19.00
2018-12-23T05:16:57.028Z,18.75
2018-12-23T05:17:33.057Z,18.57
2018-12-23T05:18:09.107Z,18.82
2018-12-23T05:18:45.468Z,19.23
2018-12-23T05:19:21.487Z,19.17
2018-12-23T05:19:57.950Z,19.00
2018-12-23T05:20:33.986Z,18.95
2018-12-23T05:21:10.013Z,18.30
2018-12-23T05:21:46.030Z,17.77
2018-12-23T05:22:22.201Z,19.07
2018-12-23T05:22:58.630Z,20.02
2018-12-23T05:23:34.670Z,18.17
2018-12-23T05:24:10.720Z,18.55
2018-12-23T05:24:46.786Z,19.15
2018-12-23T05:25:23.562Z,19.32
2018-12-23T05:25:59.599Z,19.95
2018-12-23T05:26:35.591Z,19.48
2018-12-23T05:27:11.614Z,16.73
2018-12-23T05:27:47.681Z,19.17
2018-12-23T05:28:23.685Z,17.67
2018-12-23T05:28:59.704Z,17.55
2018-12-23T05:29:36.167Z,18.42
2018-12-23T05:30:12.236Z,19.30
2018-12-23T05:30:48.267Z,17.70
2018-12-23T05:31:24.321Z,18.65
2018-12-23T05:32:00.351Z,17.80
2018-12-23T05:32:36.394Z,18.45
2018-12-23T05:33:12.424Z,18.45
2018-12-23T05:33:48.848Z,17.52
2018-12-23T05:34:24.870Z,16.60
2018-12-23T05:35:01.367Z,17.32
2018-12-23T05:35:37.410Z,16.90
2018-12-23T05:36:13.439Z,18.23
2018-12-23T05:36:52.602Z,16.97
2018-12-23T05:37:27.923Z,16.95
2018-12-23T05:38:04.334Z,16.70
2018-12-23T05:38:40.745Z,17.42
2018-12-23T05:39:18.044Z,17.02
2018-12-23T05:39:54.068Z,16.90
2018-12-23T05:40:30.110Z,16.90
2018-12-23T05:41:06.142Z,18.45
2018-12-23T05:41:42.170Z,17.35
2018-12-23T05:42:18.217Z,16.52
2018-12-23T05:42:54.263Z,17.60
2018-12-23T05:43:30.284Z,18.07
2018-12-23T05:44:06.310Z,17.80
2018-12-23T05:44:42.748Z,17.67
2018-12-23T05:45:18.751Z,16.82
2018-12-23T05:45:54.822Z,17.48
2018-12-23T05:46:30.839Z,16.85
2018-12-23T05:47:06.863Z,18.67
2018-12-23T05:47:42.899Z,16.12
2018-12-23T05:48:19.332Z,17.40
2018-12-23T05:48:55.373Z,18.25
2018-12-23T05:49:31.790Z,17.48
2018-12-23T05:50:08.636Z,17.92
2018-12-23T05:50:45.459Z,18.40
2018-12-23T05:51:21.580Z,17.20
2018-12-23T05:51:58.083Z,18.12
2018-12-23T05:52:34.990Z,17.07
2018-12-23T05:53:11.020Z,18.40
2018-12-23T05:53:47.066Z,18.15
2018-12-23T05:54:23.486Z,17.90
2018-12-23T05:54:59.535Z,18.15
2018-12-23T05:55:34.698Z,18.35
2018-12-23T05:56:10.732Z,17.75
2018-12-23T05:56:46.752Z,18.92
2018-12-23T05:57:23.209Z,17.45
2018-12-23T05:57:59.306Z,18.25
2018-12-23T05:58:35.341Z,16.93
2018-12-23T05:59:11.392Z,17.65
2018-12-23T05:59:47.531Z,17.30
2018-12-23T06:00:24.189Z,16.70
2018-12-23T06:01:00.630Z,16.97
2018-12-23T06:01:36.675Z,15.65
2018-12-23T06:02:12.694Z,18.70
2018-12-23T06:02:49.141Z,17.95
2018-12-23T06:03:25.556Z,17.85
2018-12-23T06:04:01.628Z,17.17
2018-12-23T06:04:37.660Z,17.10
2018-12-23T06:05:13.692Z,17.32
2018-12-23T06:05:49.726Z,16.30
2018-12-23T06:06:25.787Z,16.82
2018-12-23T06:07:02.232Z,16.93
2018-12-23T06:07:38.264Z,16.40
2018-12-23T06:08:14.307Z,17.00
2018-12-23T06:08:50.361Z,16.52
2018-12-23T06:09:26.585Z,16.25
2018-12-23T06:10:02.872Z,15.98
2018-12-23T06:10:38.914Z,17.70
2018-12-23T06:11:15.350Z,15.55
2018-12-23T06:11:51.376Z,15.95
2018-12-23T06:12:27.808Z,15.93
2018-12-23T06:13:04.192Z,15.90
2018-12-23T06:13:40.199Z,15.05
2018-12-23T06:14:16.259Z,15.43
2018-12-23T06:14:52.257Z,16.40
2018-12-23T06:15:28.681Z,14.50
2018-12-23T06:16:05.131Z,14.87
2018-12-23T06:16:41.194Z,16.77
2018-12-23T06:17:17.214Z,15.78
2018-12-23T06:17:53.262Z,16.12
2018-12-23T06:18:29.286Z,14.47
2018-12-23T06:19:05.341Z,13.85
2018-12-23T06:19:41.426Z,14.83
2018-12-23T06:20:17.453Z,15.10
2018-12-23T06:20:53.526Z,14.75
2018-12-23T06:21:29.996Z,14.80
2018-12-23T06:22:06.060Z,13.85
2018-12-23T06:22:42.088Z,15.08
2018-12-23T06:23:18.132Z,14.65
2018-12-23T06:23:54.191Z,13.32
2018-12-23T06:24:30.654Z,14.33
2018-12-23T06:25:08.671Z,13.58
2018-12-23T06:25:45.463Z,13.85
2018-12-23T06:26:21.552Z,13.58
2018-12-23T06:26:58.156Z,14.30
2018-12-23T06:27:34.224Z,13.38
2018-12-23T06:28:10.302Z,14.47
2018-12-23T06:28:46.394Z,13.28
2018-12-23T06:29:22.470Z,14.00
2018-12-23T06:29:58.518Z,13.75
2018-12-23T06:30:34.580Z,15.05
2018-12-23T06:31:11.036Z,13.48
2018-12-23T06:31:47.114Z,14.15
2018-12-23T06:32:23.176Z,14.43
2018-12-23T06:32:59.202Z,13.15
2018-12-23T06:33:35.228Z,14.75
2018-12-23T06:34:11.676Z,13.58
2018-12-23T06:34:47.711Z,12.80
2018-12-23T06:35:23.718Z,13.75
2018-12-23T06:35:59.788Z,14.10
2018-12-23T06:36:35.813Z,14.20
2018-12-23T06:37:12.017Z,13.50
2018-12-23T06:37:48.036Z,13.05
2018-12-23T06:38:24.214Z,14.33
2018-12-23T06:39:00.601Z,13.58
2018-12-23T06:39:36.846Z,16.07
2018-12-23T06:40:13.128Z,14.98
2018-12-23T06:40:49.380Z,13.88
2018-12-23T06:41:25.790Z,13.88
2018-12-23T06:42:02.394Z,13.18
2018-12-23T06:42:39.334Z,13.28
2018-12-23T06:43:16.360Z,12.63
2018-12-23T06:43:52.444Z,14.03
2018-12-23T06:44:28.496Z,13.50
2018-12-23T06:45:05.918Z,13.65
2018-12-23T06:45:41.936Z,12.75
2018-12-23T06:46:17.986Z,13.15
2018-12-23T06:46:54.096Z,12.90
2018-12-23T06:47:30.148Z,13.32
2018-12-23T06:48:06.171Z,13.72
2018-12-23T06:48:42.580Z,12.68
2018-12-23T06:49:18.600Z,14.00
2018-12-23T06:49:54.705Z,12.93
2018-12-23T06:50:30.812Z,11.90
2018-12-23T06:51:06.836Z,12.55
2018-12-23T06:51:42.874Z,12.55
2018-12-23T06:52:18.942Z,13.70
2018-12-23T06:52:54.992Z,13.20
2018-12-23T06:53:31.034Z,12.73
2018-12-23T06:54:07.098Z,14.03
2018-12-23T06:54:43.366Z,14.10
2018-12-23T06:55:19.452Z,13.70
2018-12-23T06:55:55.476Z,13.32
2018-12-23T06:56:31.586Z,12.75
2018-12-23T06:57:07.664Z,12.88
2018-12-23T06:57:43.790Z,11.65
2018-12-23T06:58:20.298Z,13.15
2018-12-23T06:58:56.360Z,12.70
2018-12-23T06:59:32.360Z,12.70
2018-12-23T07:00:09.554Z,11.43
2018-12-23T07:00:45.568Z,12.93
2018-12-23T07:01:21.562Z,13.35
2018-12-23T07:01:57.590Z,13.85
2018-12-23T07:02:34.424Z,12.33
2018-12-23T07:03:10.444Z,13.05
2018-12-23T07:03:46.854Z,12.75
2018-12-23T07:04:22.902Z,12.58
2018-12-23T07:04:59.272Z,11.00
2018-12-23T07:05:35.421Z,12.23
2018-12-23T07:06:11.468Z,11.90
2018-12-23T07:06:47.500Z,11.20
2018-12-23T07:07:23.543Z,11.83
2018-12-23T07:07:59.592Z,12.33
2018-12-23T07:08:35.598Z,11.43
2018-12-23T07:09:11.682Z,10.35
2018-12-23T07:09:47.704Z,11.57
2018-12-23T07:10:23.750Z,10.50
2018-12-23T07:10:59.802Z,10.72
2018-12-23T07:11:35.847Z,10.18
2018-12-23T07:12:11.915Z,10.25
2018-12-23T07:12:47.976Z,9.63
2018-12-23T07:13:24.020Z,10.65
2018-12-23T07:14:00.262Z,9.08
2018-12-23T07:14:36.666Z,10.60
2018-12-23T07:15:12.711Z,8.50
2018-12-23T07:15:48.838Z,10.25
2018-12-23T07:16:24.865Z,9.38
2018-12-23T07:17:01.085Z,8.38
2018-12-23T07:17:37.423Z,8.75
2018-12-23T07:18:13.548Z,8.83
2018-12-23T07:18:50.090Z,9.50
2018-12-23T07:19:26.374Z,8.55
2018-12-23T07:20:02.562Z,7.85
2018-12-23T07:20:39.559Z,8.45
2018-12-23T07:21:16.171Z,9.30
2018-12-23T07:21:52.461Z,8.98
2018-12-23T07:22:28.664Z,8.43
2018-12-23T07:23:05.337Z,9.73
2018-12-23T07:23:42.631Z,8.40
2018-12-23T07:24:19.120Z,8.20
2018-12-23T07:24:56.861Z,8.23
2018-12-23T07:25:33.032Z,7.67
2018-12-23T07:26:09.145Z,8.05
2018-12-23T07:26:45.774Z,7.60
2018-12-23T07:27:22.510Z,8.73
2018-12-23T07:27:59.796Z,8.13
2018-12-23T07:28:36.386Z,8.00
2018-12-23T07:29:13.394Z,7.55
2018-12-23T07:29:49.690Z,7.95
2018-12-23T07:30:26.930Z,7.60
2018-12-23T07:31:03.568Z,7.58
2018-12-23T07:31:39.920Z,7.65
2018-12-23T07:32:17.010Z,8.23
2018-12-23T07:32:53.260Z,7.90
2018-12-23T07:33:29.374Z,7.70
2018-12-23T07:34:05.636Z,7.50
2018-12-23T07:34:42.031Z,8.15
2018-12-23T07:35:18.336Z,7.83
2018-12-23T07:35:54.822Z,7.67
2018-12-23T07:36:31.086Z,8.25
2018-12-23T07:37:07.412Z,7.65
2018-12-23T07:37:44.434Z,7.33
2018-12-23T07:38:21.089Z,7.30
2018-12-23T07:38:58.143Z,7.78
2018-12-23T07:39:34.552Z,7.55
2018-12-23T07:40:11.934Z,8.03
2018-12-23T07:40:48.165Z,7.22
2018-12-23T07:41:24.745Z,7.90
2018-12-23T07:42:01.727Z,7.75
2018-12-23T07:42:37.926Z,7.17
2018-12-23T07:43:14.679Z,7.70
2018-12-23T07:43:52.587Z,8.20
2018-12-23T07:44:31.405Z,7.40
2018-12-23T07:45:08.406Z,7.83
2018-12-23T07:45:44.646Z,7.55
2018-12-23T07:46:21.062Z,8.10
2018-12-23T07:46:58.094Z,7.55
2018-12-23T07:47:34.204Z,7.35
2018-12-23T07:48:10.723Z,8.33
2018-12-23T07:48:46.780Z,8.08